sensor_id;sensor_type;location;lat;lon;timestamp;P1;durP1;ratioP1;P2;durP2;ratioP2
76284;SDS011;65096;50.998;7.098;2023-05-17T00:00:24;4.53;;;1.63;;
76284;SDS011;65096;50.998;7.098;2023-05-17T00:02:51;6.22;;;1.80;;
76284;SDS011;65096;50.998;7.098;2023-05-17T00:05:17;5.45;;;1.88;;
76284;SDS011;65096;50.998;7.098;2023-05-17T00:07:44;4.82;;;1.70;;
76284;SDS011;65096;50.998;7.098;2023-05-17T00:10:12;5.80;;;1.50;;
76284;SDS011;65096;50.998;7.098;2023-05-17T00:12:40;4.97;;;1.70;;
76284;SDS011;65096;50.998;7.098;2023-05-17T00:15:07;6.22;;;1.85;;
76284;SDS011;65096;50.998;7.098;2023-05-17T00:17:35;6.85;;;1.85;;
76284;SDS011;65096;50.998;7.098;2023-05-17T00:20:02;6.07;;;1.42;;
76284;SDS011;65096;50.998;7.098;2023-05-17T00:22:29;6.35;;;1.80;;
76284;SDS011;65096;50.998;7.098;2023-05-17T00:24:56;5.95;;;1.65;;
76284;SDS011;65096;50.998;7.098;2023-05-17T00:27:22;4.60;;;1.58;;
76284;SDS011;65096;50.998;7.098;2023-05-17T00:29:50;6.18;;;1.70;;
76284;SDS011;65096;50.998;7.098;2023-05-17T00:32:17;6.05;;;1.77;;
76284;SDS011;65096;50.998;7.098;2023-05-17T00:34:44;4.78;;;1.60;;
76284;SDS011;65096;50.998;7.098;2023-05-17T00:37:10;4.70;;;1.60;;
76284;SDS011;65096;50.998;7.098;2023-05-17T00:39:37;5.22;;;1.63;;
76284;SDS011;65096;50.998;7.098;2023-05-17T00:42:04;5.28;;;1.60;;
76284;SDS011;65096;50.998;7.098;2023-05-17T00:44:31;4.78;;;1.58;;
76284;SDS011;65096;50.998;7.098;2023-05-17T00:47:01;11.48;;;1.77;;
76284;SDS011;65096;50.998;7.098;2023-05-17T00:49:28;5.93;;;1.70;;
76284;SDS011;65096;50.998;7.098;2023-05-17T00:51:55;5.28;;;1.75;;
76284;SDS011;65096;50.998;7.098;2023-05-17T00:54:22;6.18;;;1.70;;
76284;SDS011;65096;50.998;7.098;2023-05-17T00:56:48;5.40;;;1.58;;
76284;SDS011;65096;50.998;7.098;2023-05-17T00:59:15;5.55;;;1.88;;
76284;SDS011;65096;50.998;7.098;2023-05-17T01:01:43;6.10;;;1.80;;
76284;SDS011;65096;50.998;7.098;2023-05-17T01:04:11;4.03;;;1.33;;
76284;SDS011;65096;50.998;7.098;2023-05-17T01:06:38;5.25;;;1.50;;
76284;SDS011;65096;50.998;7.098;2023-05-17T01:09:05;5.20;;;1.73;;
76284;SDS011;65096;50.998;7.098;2023-05-17T01:11:35;6.18;;;1.92;;
76284;SDS011;65096;50.998;7.098;2023-05-17T01:14:08;6.78;;;2.10;;
76284;SDS011;65096;50.998;7.098;2023-05-17T01:16:55;4.50;;;1.65;;
76284;SDS011;65096;50.998;7.098;2023-05-17T01:19:34;6.15;;;1.70;;
76284;SDS011;65096;50.998;7.098;2023-05-17T01:22:14;4.65;;;1.45;;
76284;SDS011;65096;50.998;7.098;2023-05-17T01:24:52;6.53;;;1.50;;
76284;SDS011;65096;50.998;7.098;2023-05-17T01:27:31;6.57;;;1.70;;
76284;SDS011;65096;50.998;7.098;2023-05-17T01:29:59;7.10;;;2.15;;
76284;SDS011;65096;50.998;7.098;2023-05-17T01:32:27;7.13;;;1.85;;
76284;SDS011;65096;50.998;7.098;2023-05-17T01:34:57;5.97;;;2.03;;
76284;SDS011;65096;50.998;7.098;2023-05-17T01:37:23;5.30;;;1.77;;
76284;SDS011;65096;50.998;7.098;2023-05-17T01:39:50;6.05;;;1.80;;
76284;SDS011;65096;50.998;7.098;2023-05-17T01:42:19;6.55;;;2.28;;
76284;SDS011;65096;50.998;7.098;2023-05-17T01:44:59;5.45;;;1.80;;
76284;SDS011;65096;50.998;7.098;2023-05-17T01:47:32;5.57;;;2.20;;
76284;SDS011;65096;50.998;7.098;2023-05-17T01:50:05;5.22;;;1.75;;
76284;SDS011;65096;50.998;7.098;2023-05-17T01:52:37;5.32;;;1.90;;
76284;SDS011;65096;50.998;7.098;2023-05-17T01:55:17;4.85;;;1.77;;
76284;SDS011;65096;50.998;7.098;2023-05-17T01:57:50;3.72;;;1.45;;
76284;SDS011;65096;50.998;7.098;2023-05-17T02:00:20;6.43;;;2.00;;
76284;SDS011;65096;50.998;7.098;2023-05-17T02:02:49;7.15;;;2.40;;
76284;SDS011;65096;50.998;7.098;2023-05-17T02:05:15;9.95;;;2.85;;
76284;SDS011;65096;50.998;7.098;2023-05-17T02:07:42;9.10;;;3.65;;
76284;SDS011;65096;50.998;7.098;2023-05-17T02:10:09;10.05;;;3.42;;
76284;SDS011;65096;50.998;7.098;2023-05-17T02:12:36;10.65;;;3.97;;
76284;SDS011;65096;50.998;7.098;2023-05-17T02:15:03;7.97;;;2.60;;
76284;SDS011;65096;50.998;7.098;2023-05-17T02:17:32;7.55;;;2.70;;
76284;SDS011;65096;50.998;7.098;2023-05-17T02:19:59;5.90;;;2.42;;
76284;SDS011;65096;50.998;7.098;2023-05-17T02:22:26;9.40;;;2.65;;
76284;SDS011;65096;50.998;7.098;2023-05-17T02:24:52;6.45;;;2.45;;
76284;SDS011;65096;50.998;7.098;2023-05-17T02:27:19;8.38;;;2.35;;
76284;SDS011;65096;50.998;7.098;2023-05-17T02:29:46;7.78;;;2.65;;
76284;SDS011;65096;50.998;7.098;2023-05-17T02:32:13;6.68;;;2.20;;
76284;SDS011;65096;50.998;7.098;2023-05-17T02:34:41;6.80;;;2.85;;
76284;SDS011;65096;50.998;7.098;2023-05-17T02:37:08;5.00;;;2.10;;
76284;SDS011;65096;50.998;7.098;2023-05-17T02:39:34;5.70;;;1.85;;
76284;SDS011;65096;50.998;7.098;2023-05-17T02:42:01;8.07;;;2.38;;
76284;SDS011;65096;50.998;7.098;2023-05-17T02:44:29;5.88;;;2.00;;
76284;SDS011;65096;50.998;7.098;2023-05-17T02:46:56;7.82;;;2.70;;
76284;SDS011;65096;50.998;7.098;2023-05-17T02:49:23;5.10;;;2.00;;
76284;SDS011;65096;50.998;7.098;2023-05-17T02:51:51;4.32;;;1.92;;
76284;SDS011;65096;50.998;7.098;2023-05-17T02:54:18;6.65;;;2.10;;
76284;SDS011;65096;50.998;7.098;2023-05-17T02:56:44;6.53;;;1.70;;
76284;SDS011;65096;50.998;7.098;2023-05-17T02:59:11;5.53;;;2.05;;
76284;SDS011;65096;50.998;7.098;2023-05-17T03:01:37;6.63;;;2.28;;
76284;SDS011;65096;50.998;7.098;2023-05-17T03:04:04;6.63;;;2.10;;
76284;SDS011;65096;50.998;7.098;2023-05-17T03:06:31;5.72;;;2.10;;
76284;SDS011;65096;50.998;7.098;2023-05-17T03:09:00;7.32;;;3.00;;
76284;SDS011;65096;50.998;7.098;2023-05-17T03:11:26;8.00;;;2.75;;
76284;SDS011;65096;50.998;7.098;2023-05-17T03:13:53;9.40;;;2.58;;
76284;SDS011;65096;50.998;7.098;2023-05-17T03:16:19;7.60;;;3.17;;
76284;SDS011;65096;50.998;7.098;2023-05-17T03:18:46;7.30;;;2.83;;
76284;SDS011;65096;50.998;7.098;2023-05-17T03:21:13;7.32;;;2.83;;
76284;SDS011;65096;50.998;7.098;2023-05-17T03:23:39;6.60;;;2.83;;
76284;SDS011;65096;50.998;7.098;2023-05-17T03:26:07;6.22;;;2.25;;
76284;SDS011;65096;50.998;7.098;2023-05-17T03:28:34;7.00;;;2.90;;
76284;SDS011;65096;50.998;7.098;2023-05-17T03:31:01;7.72;;;2.53;;
76284;SDS011;65096;50.998;7.098;2023-05-17T03:33:27;7.53;;;2.75;;
76284;SDS011;65096;50.998;7.098;2023-05-17T03:35:54;7.53;;;2.75;;
76284;SDS011;65096;50.998;7.098;2023-05-17T03:38:21;7.20;;;2.78;;
76284;SDS011;65096;50.998;7.098;2023-05-17T03:40:47;6.93;;;2.67;;
76284;SDS011;65096;50.998;7.098;2023-05-17T03:43:15;7.15;;;2.60;;
76284;SDS011;65096;50.998;7.098;2023-05-17T03:45:42;6.45;;;2.80;;
76284;SDS011;65096;50.998;7.098;2023-05-17T03:48:08;6.05;;;2.70;;
76284;SDS011;65096;50.998;7.098;2023-05-17T03:50:35;8.90;;;3.08;;
76284;SDS011;65096;50.998;7.098;2023-05-17T03:53:03;8.88;;;3.03;;
76284;SDS011;65096;50.998;7.098;2023-05-17T03:55:30;8.95;;;3.10;;
76284;SDS011;65096;50.998;7.098;2023-05-17T03:57:56;9.35;;;3.63;;
76284;SDS011;65096;50.998;7.098;2023-05-17T04:00:24;7.78;;;3.53;;
76284;SDS011;65096;50.998;7.098;2023-05-17T04:02:51;9.20;;;3.13;;
76284;SDS011;65096;50.998;7.098;2023-05-17T04:05:18;8.38;;;3.50;;
76284;SDS011;65096;50.998;7.098;2023-05-17T04:07:45;9.43;;;3.47;;
76284;SDS011;65096;50.998;7.098;2023-05-17T04:10:11;9.98;;;3.25;;
76284;SDS011;65096;50.998;7.098;2023-05-17T04:12:38;8.65;;;3.30;;
76284;SDS011;65096;50.998;7.098;2023-05-17T04:15:05;8.60;;;3.42;;
76284;SDS011;65096;50.998;7.098;2023-05-17T04:17:34;13.07;;;3.85;;
76284;SDS011;65096;50.998;7.098;2023-05-17T04:20:01;10.32;;;3.45;;
76284;SDS011;65096;50.998;7.098;2023-05-17T04:22:29;10.73;;;3.70;;
76284;SDS011;65096;50.998;7.098;2023-05-17T04:24:56;7.97;;;4.00;;
76284;SDS011;65096;50.998;7.098;2023-05-17T04:27:22;11.07;;;3.92;;
76284;SDS011;65096;50.998;7.098;2023-05-17T04:29:49;9.25;;;4.18;;
76284;SDS011;65096;50.998;7.098;2023-05-17T04:32:16;8.70;;;3.85;;
76284;SDS011;65096;50.998;7.098;2023-05-17T04:34:44;11.48;;;4.00;;
76284;SDS011;65096;50.998;7.098;2023-05-17T04:37:12;11.65;;;4.25;;
76284;SDS011;65096;50.998;7.098;2023-05-17T04:39:38;11.95;;;4.65;;
76284;SDS011;65096;50.998;7.098;2023-05-17T04:42:05;10.32;;;5.05;;
76284;SDS011;65096;50.998;7.098;2023-05-17T04:44:33;9.48;;;3.83;;
76284;SDS011;65096;50.998;7.098;2023-05-17T04:46:59;9.43;;;4.03;;
76284;SDS011;65096;50.998;7.098;2023-05-17T04:49:27;7.03;;;3.67;;
76284;SDS011;65096;50.998;7.098;2023-05-17T04:51:55;11.55;;;4.07;;
76284;SDS011;65096;50.998;7.098;2023-05-17T04:54:22;10.27;;;4.15;;
76284;SDS011;65096;50.998;7.098;2023-05-17T04:56:49;11.98;;;4.05;;
76284;SDS011;65096;50.998;7.098;2023-05-17T04:59:16;12.88;;;4.30;;
76284;SDS011;65096;50.998;7.098;2023-05-17T05:01:42;11.38;;;4.47;;
76284;SDS011;65096;50.998;7.098;2023-05-17T05:04:09;11.52;;;4.80;;
76284;SDS011;65096;50.998;7.098;2023-05-17T05:06:36;9.85;;;4.47;;
76284;SDS011;65096;50.998;7.098;2023-05-17T05:09:04;12.32;;;4.80;;
76284;SDS011;65096;50.998;7.098;2023-05-17T05:11:31;10.32;;;4.20;;
76284;SDS011;65096;50.998;7.098;2023-05-17T05:13:58;9.88;;;4.53;;
76284;SDS011;65096;50.998;7.098;2023-05-17T05:16:24;9.45;;;4.80;;
76284;SDS011;65096;50.998;7.098;2023-05-17T05:18:51;11.32;;;4.40;;
76284;SDS011;65096;50.998;7.098;2023-05-17T05:21:18;9.95;;;4.50;;
76284;SDS011;65096;50.998;7.098;2023-05-17T05:23:44;13.27;;;5.05;;
76284;SDS011;65096;50.998;7.098;2023-05-17T05:26:12;12.50;;;4.90;;
76284;SDS011;65096;50.998;7.098;2023-05-17T05:28:39;11.30;;;5.20;;
76284;SDS011;65096;50.998;7.098;2023-05-17T05:31:06;9.70;;;4.63;;
76284;SDS011;65096;50.998;7.098;2023-05-17T05:33:32;12.25;;;5.47;;
76284;SDS011;65096;50.998;7.098;2023-05-17T05:35:59;13.77;;;5.10;;
76284;SDS011;65096;50.998;7.098;2023-05-17T05:38:26;11.23;;;5.75;;
76284;SDS011;65096;50.998;7.098;2023-05-17T05:40:52;11.10;;;5.18;;
76284;SDS011;65096;50.998;7.098;2023-05-17T05:43:21;12.38;;;5.50;;
76284;SDS011;65096;50.998;7.098;2023-05-17T05:45:48;12.40;;;5.13;;
76284;SDS011;65096;50.998;7.098;2023-05-17T05:48:14;12.55;;;5.72;;
76284;SDS011;65096;50.998;7.098;2023-05-17T05:50:42;11.77;;;5.13;;
76284;SDS011;65096;50.998;7.098;2023-05-17T05:53:09;13.73;;;6.10;;
76284;SDS011;65096;50.998;7.098;2023-05-17T05:55:39;13.82;;;6.20;;
76284;SDS011;65096;50.998;7.098;2023-05-17T05:58:06;17.13;;;6.60;;
76284;SDS011;65096;50.998;7.098;2023-05-17T06:00:34;17.10;;;7.00;;
76284;SDS011;65096;50.998;7.098;2023-05-17T06:03:01;14.23;;;6.65;;
76284;SDS011;65096;50.998;7.098;2023-05-17T06:05:28;12.73;;;6.10;;
76284;SDS011;65096;50.998;7.098;2023-05-17T06:07:54;18.88;;;6.95;;
76284;SDS011;65096;50.998;7.098;2023-05-17T06:10:22;16.42;;;6.90;;
76284;SDS011;65096;50.998;7.098;2023-05-17T06:12:49;13.80;;;6.65;;
76284;SDS011;65096;50.998;7.098;2023-05-17T06:15:16;14.93;;;6.60;;
76284;SDS011;65096;50.998;7.098;2023-05-17T06:17:44;20.45;;;8.57;;
76284;SDS011;65096;50.998;7.098;2023-05-17T06:20:10;23.38;;;10.50;;
76284;SDS011;65096;50.998;7.098;2023-05-17T06:22:37;19.33;;;9.32;;
76284;SDS011;65096;50.998;7.098;2023-05-17T06:25:04;23.85;;;11.88;;
76284;SDS011;65096;50.998;7.098;2023-05-17T06:27:32;21.77;;;9.63;;
76284;SDS011;65096;50.998;7.098;2023-05-17T06:29:59;23.58;;;10.23;;
76284;SDS011;65096;50.998;7.098;2023-05-17T06:32:25;22.15;;;10.00;;
76284;SDS011;65096;50.998;7.098;2023-05-17T06:34:54;21.00;;;11.13;;
76284;SDS011;65096;50.998;7.098;2023-05-17T06:37:21;23.65;;;10.88;;
76284;SDS011;65096;50.998;7.098;2023-05-17T06:39:49;25.58;;;10.10;;
76284;SDS011;65096;50.998;7.098;2023-05-17T06:42:16;22.02;;;9.82;;
76284;SDS011;65096;50.998;7.098;2023-05-17T06:44:43;24.40;;;10.65;;
76284;SDS011;65096;50.998;7.098;2023-05-17T06:47:10;25.15;;;11.05;;
76284;SDS011;65096;50.998;7.098;2023-05-17T06:49:36;23.33;;;10.73;;
76284;SDS011;65096;50.998;7.098;2023-05-17T06:52:05;23.90;;;10.05;;
76284;SDS011;65096;50.998;7.098;2023-05-17T06:54:31;25.33;;;10.75;;
76284;SDS011;65096;50.998;7.098;2023-05-17T06:56:58;25.38;;;10.05;;
76284;SDS011;65096;50.998;7.098;2023-05-17T06:59:25;20.77;;;9.60;;
76284;SDS011;65096;50.998;7.098;2023-05-17T07:01:52;19.67;;;9.13;;
76284;SDS011;65096;50.998;7.098;2023-05-17T07:04:19;22.20;;;9.43;;
76284;SDS011;65096;50.998;7.098;2023-05-17T07:06:45;19.00;;;8.82;;
76284;SDS011;65096;50.998;7.098;2023-05-17T07:09:13;19.42;;;8.63;;
76284;SDS011;65096;50.998;7.098;2023-05-17T07:11:40;24.63;;;8.55;;
76284;SDS011;65096;50.998;7.098;2023-05-17T07:14:07;15.50;;;6.15;;
76284;SDS011;65096;50.998;7.098;2023-05-17T07:16:34;18.88;;;6.35;;
76284;SDS011;65096;50.998;7.098;2023-05-17T07:19:00;19.05;;;7.65;;
76284;SDS011;65096;50.998;7.098;2023-05-17T07:21:27;18.27;;;8.43;;
76284;SDS011;65096;50.998;7.098;2023-05-17T07:23:54;19.33;;;7.20;;
76284;SDS011;65096;50.998;7.098;2023-05-17T07:26:22;15.82;;;7.13;;
76284;SDS011;65096;50.998;7.098;2023-05-17T07:28:49;16.40;;;6.80;;
76284;SDS011;65096;50.998;7.098;2023-05-17T07:31:16;17.90;;;6.50;;
76284;SDS011;65096;50.998;7.098;2023-05-17T07:33:43;16.23;;;6.30;;
76284;SDS011;65096;50.998;7.098;2023-05-17T07:36:09;14.88;;;4.38;;
76284;SDS011;65096;50.998;7.098;2023-05-17T07:38:36;9.10;;;3.25;;
76284;SDS011;65096;50.998;7.098;2023-05-17T07:41:04;10.40;;;2.78;;
76284;SDS011;65096;50.998;7.098;2023-05-17T07:43:35;11.73;;;3.28;;
76284;SDS011;65096;50.998;7.098;2023-05-17T07:46:01;12.80;;;3.00;;
76284;SDS011;65096;50.998;7.098;2023-05-17T07:48:28;9.23;;;2.30;;
76284;SDS011;65096;50.998;7.098;2023-05-17T07:50:55;12.75;;;2.75;;
76284;SDS011;65096;50.998;7.098;2023-05-17T07:53:22;11.90;;;2.45;;
76284;SDS011;65096;50.998;7.098;2023-05-17T07:55:49;9.48;;;2.90;;
76284;SDS011;65096;50.998;7.098;2023-05-17T07:58:16;7.85;;;2.20;;
76284;SDS011;65096;50.998;7.098;2023-05-17T08:00:44;9.82;;;2.30;;
76284;SDS011;65096;50.998;7.098;2023-05-17T08:03:11;10.13;;;2.40;;
76284;SDS011;65096;50.998;7.098;2023-05-17T08:05:37;8.15;;;2.17;;
76284;SDS011;65096;50.998;7.098;2023-05-17T08:08:04;7.25;;;2.20;;
76284;SDS011;65096;50.998;7.098;2023-05-17T08:10:31;7.30;;;2.40;;
76284;SDS011;65096;50.998;7.098;2023-05-17T08:12:58;11.70;;;2.10;;
76284;SDS011;65096;50.998;7.098;2023-05-17T08:15:25;9.73;;;2.15;;
76284;SDS011;65096;50.998;7.098;2023-05-17T08:17:53;7.55;;;2.67;;
76284;SDS011;65096;50.998;7.098;2023-05-17T08:20:20;8.88;;;2.28;;
76284;SDS011;65096;50.998;7.098;2023-05-17T08:22:47;10.80;;;2.97;;
76284;SDS011;65096;50.998;7.098;2023-05-17T08:25:13;7.50;;;2.13;;
76284;SDS011;65096;50.998;7.098;2023-05-17T08:27:40;9.43;;;2.20;;
76284;SDS011;65096;50.998;7.098;2023-05-17T08:30:07;8.25;;;2.70;;
76284;SDS011;65096;50.998;7.098;2023-05-17T08:32:34;17.30;;;4.60;;
76284;SDS011;65096;50.998;7.098;2023-05-17T08:35:02;13.23;;;3.22;;
76284;SDS011;65096;50.998;7.098;2023-05-17T08:37:29;10.95;;;2.58;;
76284;SDS011;65096;50.998;7.098;2023-05-17T08:39:56;10.65;;;2.60;;
76284;SDS011;65096;50.998;7.098;2023-05-17T08:42:23;7.03;;;2.00;;
76284;SDS011;65096;50.998;7.098;2023-05-17T08:44:50;10.95;;;2.03;;
76284;SDS011;65096;50.998;7.098;2023-05-17T08:47:18;10.90;;;1.90;;
76284;SDS011;65096;50.998;7.098;2023-05-17T08:49:53;7.70;;;2.10;;
76284;SDS011;65096;50.998;7.098;2023-05-17T08:52:25;10.35;;;2.17;;
76284;SDS011;65096;50.998;7.098;2023-05-17T08:54:55;13.77;;;2.65;;
76284;SDS011;65096;50.998;7.098;2023-05-17T08:57:22;7.80;;;1.70;;
76284;SDS011;65096;50.998;7.098;2023-05-17T08:59:52;12.15;;;2.00;;
76284;SDS011;65096;50.998;7.098;2023-05-17T09:02:19;9.00;;;2.60;;
76284;SDS011;65096;50.998;7.098;2023-05-17T09:04:47;7.90;;;2.25;;
76284;SDS011;65096;50.998;7.098;2023-05-17T09:07:19;10.70;;;2.60;;
76284;SDS011;65096;50.998;7.098;2023-05-17T09:09:47;12.30;;;3.30;;
76284;SDS011;65096;50.998;7.098;2023-05-17T09:12:16;12.15;;;2.80;;
76284;SDS011;65096;50.998;7.098;2023-05-17T09:14:42;11.48;;;2.58;;
76284;SDS011;65096;50.998;7.098;2023-05-17T09:17:12;12.27;;;2.50;;
76284;SDS011;65096;50.998;7.098;2023-05-17T09:19:42;12.27;;;2.50;;
76284;SDS011;65096;50.998;7.098;2023-05-17T09:22:11;9.45;;;2.63;;
76284;SDS011;65096;50.998;7.098;2023-05-17T09:24:39;12.50;;;2.63;;
76284;SDS011;65096;50.998;7.098;2023-05-17T09:27:08;9.38;;;2.58;;
76284;SDS011;65096;50.998;7.098;2023-05-17T09:29:39;10.07;;;2.30;;
76284;SDS011;65096;50.998;7.098;2023-05-17T09:32:12;8.57;;;2.75;;
76284;SDS011;65096;50.998;7.098;2023-05-17T09:34:40;8.20;;;2.70;;
76284;SDS011;65096;50.998;7.098;2023-05-17T09:37:13;7.95;;;2.15;;
76284;SDS011;65096;50.998;7.098;2023-05-17T09:39:42;7.35;;;2.25;;
76284;SDS011;65096;50.998;7.098;2023-05-17T09:42:11;9.25;;;2.55;;
76284;SDS011;65096;50.998;7.098;2023-05-17T09:44:48;11.30;;;3.05;;
76284;SDS011;65096;50.998;7.098;2023-05-17T09:47:21;6.72;;;2.10;;
76284;SDS011;65096;50.998;7.098;2023-05-17T09:49:51;5.63;;;1.90;;
76284;SDS011;65096;50.998;7.098;2023-05-17T09:52:20;9.00;;;2.88;;
76284;SDS011;65096;50.998;7.098;2023-05-17T09:54:51;8.00;;;2.08;;
76284;SDS011;65096;50.998;7.098;2023-05-17T09:57:20;9.55;;;2.25;;
76284;SDS011;65096;50.998;7.098;2023-05-17T09:59:47;8.00;;;2.22;;
76284;SDS011;65096;50.998;7.098;2023-05-17T10:02:16;7.72;;;2.15;;
76284;SDS011;65096;50.998;7.098;2023-05-17T10:04:46;9.07;;;2.30;;
76284;SDS011;65096;50.998;7.098;2023-05-17T10:07:14;7.10;;;1.90;;
76284;SDS011;65096;50.998;7.098;2023-05-17T10:09:45;8.07;;;2.20;;
76284;SDS011;65096;50.998;7.098;2023-05-17T10:12:12;9.20;;;2.10;;
76284;SDS011;65096;50.998;7.098;2023-05-17T10:14:44;8.95;;;2.00;;
76284;SDS011;65096;50.998;7.098;2023-05-17T10:17:12;9.20;;;2.13;;
76284;SDS011;65096;50.998;7.098;2023-05-17T10:19:39;7.32;;;2.05;;
76284;SDS011;65096;50.998;7.098;2023-05-17T10:22:06;7.53;;;2.20;;
76284;SDS011;65096;50.998;7.098;2023-05-17T10:24:34;12.40;;;2.20;;
76284;SDS011;65096;50.998;7.098;2023-05-17T10:27:02;9.32;;;1.85;;
76284;SDS011;65096;50.998;7.098;2023-05-17T10:29:30;7.63;;;2.47;;
76284;SDS011;65096;50.998;7.098;2023-05-17T10:32:05;7.97;;;2.08;;
76284;SDS011;65096;50.998;7.098;2023-05-17T10:34:33;7.80;;;1.80;;
76284;SDS011;65096;50.998;7.098;2023-05-17T10:37:01;9.60;;;2.10;;
76284;SDS011;65096;50.998;7.098;2023-05-17T10:39:29;6.47;;;1.70;;
76284;SDS011;65096;50.998;7.098;2023-05-17T10:41:59;6.88;;;1.77;;
76284;SDS011;65096;50.998;7.098;2023-05-17T10:44:29;8.13;;;2.22;;
76284;SDS011;65096;50.998;7.098;2023-05-17T10:46:58;7.38;;;1.52;;
76284;SDS011;65096;50.998;7.098;2023-05-17T10:49:28;7.30;;;1.60;;
76284;SDS011;65096;50.998;7.098;2023-05-17T10:51:56;6.38;;;1.50;;
76284;SDS011;65096;50.998;7.098;2023-05-17T10:54:32;6.40;;;1.63;;
76284;SDS011;65096;50.998;7.098;2023-05-17T10:57:00;9.70;;;2.03;;
76284;SDS011;65096;50.998;7.098;2023-05-17T10:59:30;8.35;;;2.15;;
76284;SDS011;65096;50.998;7.098;2023-05-17T11:01:58;8.77;;;1.90;;
76284;SDS011;65096;50.998;7.098;2023-05-17T11:04:32;5.40;;;1.40;;
76284;SDS011;65096;50.998;7.098;2023-05-17T11:07:19;7.13;;;1.60;;
76284;SDS011;65096;50.998;7.098;2023-05-17T11:09:49;8.90;;;2.35;;
76284;SDS011;65096;50.998;7.098;2023-05-17T11:12:26;7.68;;;1.63;;
76284;SDS011;65096;50.998;7.098;2023-05-17T11:14:55;8.27;;;1.98;;
76284;SDS011;65096;50.998;7.098;2023-05-17T11:17:23;9.55;;;2.20;;
76284;SDS011;65096;50.998;7.098;2023-05-17T11:19:55;7.85;;;1.80;;
76284;SDS011;65096;50.998;7.098;2023-05-17T11:22:27;7.55;;;1.80;;
76284;SDS011;65096;50.998;7.098;2023-05-17T11:25:01;10.38;;;1.83;;
76284;SDS011;65096;50.998;7.098;2023-05-17T11:27:34;8.90;;;1.88;;
76284;SDS011;65096;50.998;7.098;2023-05-17T11:32:49;9.38;;;2.22;;
76284;SDS011;65096;50.998;7.098;2023-05-17T11:35:22;8.50;;;1.83;;
76284;SDS011;65096;50.998;7.098;2023-05-17T11:38:11;7.30;;;1.60;;
76284;SDS011;65096;50.998;7.098;2023-05-17T11:40:39;7.10;;;1.73;;
76284;SDS011;65096;50.998;7.098;2023-05-17T11:43:10;6.65;;;1.80;;
76284;SDS011;65096;50.998;7.098;2023-05-17T11:45:42;5.45;;;1.83;;
76284;SDS011;65096;50.998;7.098;2023-05-17T11:48:10;7.35;;;1.70;;
76284;SDS011;65096;50.998;7.098;2023-05-17T11:50:39;6.45;;;1.48;;
76284;SDS011;65096;50.998;7.098;2023-05-17T11:53:07;6.03;;;1.70;;
76284;SDS011;65096;50.998;7.098;2023-05-17T11:55:38;7.80;;;1.50;;
76284;SDS011;65096;50.998;7.098;2023-05-17T11:58:06;6.30;;;1.58;;
76284;SDS011;65096;50.998;7.098;2023-05-17T12:00:35;9.20;;;2.10;;
76284;SDS011;65096;50.998;7.098;2023-05-17T12:03:18;6.75;;;1.70;;
76284;SDS011;65096;50.998;7.098;2023-05-17T12:05:48;8.63;;;2.20;;
76284;SDS011;65096;50.998;7.098;2023-05-17T12:08:18;7.22;;;1.92;;
76284;SDS011;65096;50.998;7.098;2023-05-17T12:10:46;7.40;;;1.98;;
76284;SDS011;65096;50.998;7.098;2023-05-17T12:13:13;6.78;;;1.67;;
76284;SDS011;65096;50.998;7.098;2023-05-17T12:15:40;7.88;;;1.95;;
76284;SDS011;65096;50.998;7.098;2023-05-17T12:18:11;5.47;;;1.73;;
76284;SDS011;65096;50.998;7.098;2023-05-17T12:20:37;8.30;;;2.00;;
76284;SDS011;65096;50.998;7.098;2023-05-17T12:23:06;6.53;;;1.88;;
76284;SDS011;65096;50.998;7.098;2023-05-17T12:25:32;8.82;;;2.03;;
76284;SDS011;65096;50.998;7.098;2023-05-17T12:28:11;7.70;;;2.10;;
76284;SDS011;65096;50.998;7.098;2023-05-17T12:30:39;7.03;;;1.70;;
76284;SDS011;65096;50.998;7.098;2023-05-17T12:33:06;7.32;;;1.92;;
76284;SDS011;65096;50.998;7.098;2023-05-17T12:35:33;7.85;;;2.13;;
76284;SDS011;65096;50.998;7.098;2023-05-17T12:38:00;8.57;;;2.15;;
76284;SDS011;65096;50.998;7.098;2023-05-17T12:40:29;7.80;;;1.90;;
76284;SDS011;65096;50.998;7.098;2023-05-17T12:43:00;8.13;;;1.83;;
76284;SDS011;65096;50.998;7.098;2023-05-17T12:45:27;10.38;;;2.40;;
76284;SDS011;65096;50.998;7.098;2023-05-17T12:47:53;6.93;;;1.90;;
76284;SDS011;65096;50.998;7.098;2023-05-17T12:50:24;7.72;;;1.92;;
76284;SDS011;65096;50.998;7.098;2023-05-17T12:52:51;7.25;;;1.67;;
76284;SDS011;65096;50.998;7.098;2023-05-17T12:55:18;8.25;;;2.00;;
76284;SDS011;65096;50.998;7.098;2023-05-17T12:57:49;8.13;;;1.95;;
76284;SDS011;65096;50.998;7.098;2023-05-17T13:00:17;7.93;;;1.90;;
76284;SDS011;65096;50.998;7.098;2023-05-17T13:02:44;7.80;;;1.90;;
76284;SDS011;65096;50.998;7.098;2023-05-17T13:05:15;7.03;;;1.85;;
76284;SDS011;65096;50.998;7.098;2023-05-17T13:07:42;8.60;;;1.77;;
76284;SDS011;65096;50.998;7.098;2023-05-17T13:10:19;8.18;;;1.83;;
76284;SDS011;65096;50.998;7.098;2023-05-17T13:12:54;9.05;;;2.20;;
76284;SDS011;65096;50.998;7.098;2023-05-17T13:15:26;6.10;;;1.80;;
76284;SDS011;65096;50.998;7.098;2023-05-17T13:17:53;6.82;;;1.65;;
76284;SDS011;65096;50.998;7.098;2023-05-17T13:20:20;5.82;;;1.60;;
76284;SDS011;65096;50.998;7.098;2023-05-17T13:22:47;7.07;;;1.83;;
76284;SDS011;65096;50.998;7.098;2023-05-17T13:25:14;7.65;;;2.17;;
76284;SDS011;65096;50.998;7.098;2023-05-17T13:27:41;6.75;;;2.00;;
76284;SDS011;65096;50.998;7.098;2023-05-17T13:30:12;6.53;;;1.80;;
76284;SDS011;65096;50.998;7.098;2023-05-17T13:32:39;6.88;;;1.83;;
76284;SDS011;65096;50.998;7.098;2023-05-17T13:35:07;6.50;;;1.90;;
76284;SDS011;65096;50.998;7.098;2023-05-17T13:37:34;9.25;;;1.95;;
76284;SDS011;65096;50.998;7.098;2023-05-17T13:40:00;7.85;;;1.90;;
76284;SDS011;65096;50.998;7.098;2023-05-17T13:42:27;5.63;;;1.67;;
76284;SDS011;65096;50.998;7.098;2023-05-17T13:44:54;7.90;;;2.35;;
76284;SDS011;65096;50.998;7.098;2023-05-17T13:47:22;7.20;;;1.80;;
76284;SDS011;65096;50.998;7.098;2023-05-17T13:49:49;8.65;;;2.13;;
76284;SDS011;65096;50.998;7.098;2023-05-17T13:52:16;6.45;;;2.00;;
76284;SDS011;65096;50.998;7.098;2023-05-17T13:54:43;9.48;;;2.00;;
76284;SDS011;65096;50.998;7.098;2023-05-17T13:57:09;11.13;;;1.85;;
76284;SDS011;65096;50.998;7.098;2023-05-17T13:59:37;7.53;;;2.25;;
76284;SDS011;65096;50.998;7.098;2023-05-17T14:02:04;7.35;;;1.88;;
76284;SDS011;65096;50.998;7.098;2023-05-17T14:04:32;8.07;;;2.08;;
76284;SDS011;65096;50.998;7.098;2023-05-17T14:06:59;6.03;;;1.85;;
76284;SDS011;65096;50.998;7.098;2023-05-17T14:09:27;6.80;;;1.52;;
76284;SDS011;65096;50.998;7.098;2023-05-17T14:11:57;7.75;;;1.70;;
76284;SDS011;65096;50.998;7.098;2023-05-17T14:14:23;9.13;;;2.20;;
76284;SDS011;65096;50.998;7.098;2023-05-17T14:16:52;8.15;;;2.20;;
76284;SDS011;65096;50.998;7.098;2023-05-17T14:19:19;6.85;;;1.98;;
76284;SDS011;65096;50.998;7.098;2023-05-17T14:21:47;8.32;;;2.10;;
76284;SDS011;65096;50.998;7.098;2023-05-17T14:24:14;6.43;;;2.20;;
76284;SDS011;65096;50.998;7.098;2023-05-17T14:26:40;7.35;;;1.95;;
76284;SDS011;65096;50.998;7.098;2023-05-17T14:29:08;10.15;;;2.17;;
76284;SDS011;65096;50.998;7.098;2023-05-17T14:31:35;8.48;;;2.20;;
76284;SDS011;65096;50.998;7.098;2023-05-17T14:34:01;9.23;;;2.00;;
76284;SDS011;65096;50.998;7.098;2023-05-17T14:36:28;7.38;;;2.15;;
76284;SDS011;65096;50.998;7.098;2023-05-17T14:38:57;9.20;;;2.25;;
76284;SDS011;65096;50.998;7.098;2023-05-17T14:41:24;6.35;;;2.03;;
76284;SDS011;65096;50.998;7.098;2023-05-17T14:43:51;9.10;;;2.47;;
76284;SDS011;65096;50.998;7.098;2023-05-17T14:46:17;6.78;;;2.20;;
76284;SDS011;65096;50.998;7.098;2023-05-17T14:48:44;10.63;;;2.17;;
76284;SDS011;65096;50.998;7.098;2023-05-17T14:51:12;7.32;;;1.95;;